Time;durP1;ratioP1;P1;durP2;ratioP2;P2;SDS_P1;SDS_P2;PMS_P1;PMS_P2;Temp;Humidity;BMP_temperature;BMP_pressure;BME280_temperature;BME280_humidity;BME280_pressure;Samples;Min_cycle;Max_cycle;Signal;HPM_P1;HPM_P2
2021/04/17 00:20:00;;;;;;;7.53;6.07;;;;;;;5.15;93.39;99967.73;1813625;79;25731;-72
2021/04/17 00:22:29;;;;;;;8.03;6.35;;;;;;;5.09;93.49;99967.86;1786788;80;22171;-73
2021/04/17 00:24:57;;;;;;;8.58;6.60;;;;;;;5.09;93.58;99970.47;1786706;80;22091;-71
2021/04/17 00:27:25;;;;;;;8.15;6.33;;;;;;;5.10;93.56;99968.27;1786731;80;21159;-71
2021/04/17 00:29:52;;;;;;;8.90;6.60;;;;;;;5.12;93.43;99971.72;1786994;80;21670;-72
2021/04/17 00:32:20;;;;;;;11.15;6.97;;;;;;;5.12;93.35;99969.10;1786925;80;21685;-72
2021/04/17 00:34:50;;;;;;;9.53;6.45;;;;;;;5.12;93.24;99973.02;1786881;80;21162;-73
2021/04/17 00:37:18;;;;;;;8.73;6.50;;;;;;;5.08;93.25;99983.09;1782436;79;21410;-76
2021/04/17 00:39:46;;;;;;;9.05;5.90;;;;;;;5.09;93.20;99975.69;1747481;80;21266;-72
2021/04/17 00:42:16;;;;;;;9.08;6.03;;;;;;;5.08;93.05;99978.31;1769798;81;21626;-73
2021/04/17 00:44:45;;;;;;;7.75;5.58;;;;;;;5.06;92.83;99979.64;1695962;82;21151;-72
2021/04/17 00:47:12;;;;;;;11.18;7.20;;;;;;;5.05;92.97;99976.63;1722141;83;21144;-77
2021/04/17 00:49:42;;;;;;;10.05;6.58;;;;;;;5.03;92.68;99984.92;1738678;81;21220;-77
2021/04/17 00:52:11;;;;;;;9.53;5.97;;;;;;;5.01;92.50;99983.63;1709357;83;21221;-78
2021/04/17 00:54:41;;;;;;;10.53;6.92;;;;;;;4.97;92.61;99987.62;1694409;82;21199;-78
2021/04/17 00:57:08;;;;;;;12.53;6.87;;;;;;;4.93;92.75;99988.13;1716560;83;21205;-78
2021/04/17 00:59:36;;;;;;;8.35;6.75;;;;;;;4.91;92.66;99985.98;1744747;82;21634;-72
2021/04/17 01:02:06;;;;;;;7.92;6.03;;;;;;;4.91;92.73;99986.44;1716632;83;21411;-71
2021/04/17 01:04:39;;;;;;;9.45;6.53;;;;;;;4.91;93.24;99983.83;1744776;82;21151;-71
2021/04/17 01:07:40;;;;;;;9.20;6.62;;;;;;;4.91;93.12;99986.44;1716591;83;21188;-72
2021/04/17 01:10:12;;;;;;;;;;;;;;;4.90;93.10;99984.70;1700380;82;21177;-71
2021/04/17 01:12:45;;;;;;;10.50;7.28;;;;;;;4.94;93.31;99983.77;1732278;82;20274;-72
2021/04/17 01:15:20;;;;;;;9.45;6.85;;;;;;;4.93;93.06;99990.74;1719222;82;21388;-72
2021/04/17 01:17:48;;;;;;;10.88;7.35;;;;;;;4.86;92.83;99993.48;1702041;83;21227;-72
2021/04/17 01:20:37;;;;;;;9.90;7.40;;;;;;;4.82;92.87;99993.52;1663623;84;21169;-71
2021/04/17 01:23:19;;;;;;;10.40;7.45;;;;;;;4.83;92.76;99992.64;1680842;84;21208;-71
2021/04/17 01:26:04;;;;;;;10.35;7.33;;;;;;;4.82;92.51;99990.05;1743218;82;21175;-72
2021/04/17 01:28:54;;;;;;;13.00;7.27;;;;;;;4.85;92.72;99992.59;1843801;76;23748;-72
2021/04/17 01:31:26;;;;;;;10.50;6.53;;;;;;;4.80;92.65;99995.28;1815725;79;21174;-72
2021/04/17 01:33:56;;;;;;;12.75;8.60;;;;;;;4.80;92.58;99996.59;1815011;79;21396;-72
2021/04/17 01:36:26;;;;;;;11.57;7.90;;;;;;;4.82;92.73;100000.48;1815686;79;21083;-71
2021/04/17 01:39:09;;;;;;;11.53;8.05;;;;;;;4.80;92.64;99992.67;1816115;77;21194;-73
2021/04/17 01:41:46;;;;;;;10.32;7.20;;;;;;;4.81;92.77;99995.72;1781047;79;21202;-71
2021/04/17 01:44:27;;;;;;;9.38;7.05;;;;;;;4.82;92.66;99996.13;1750185;81;21178;-72
2021/04/17 01:47:07;;;;;;;10.93;8.25;;;;;;;4.86;92.69;99998.70;1750041;81;22348;-73
2021/04/17 01:49:42;;;;;;;12.68;9.38;;;;;;;4.81;92.51;99999.63;1750229;81;21191;-70
2021/04/17 01:52:13;;;;;;;13.43;8.63;;;;;;;4.79;92.52;99999.23;1750303;81;21456;-70
2021/04/17 01:54:45;;;;;;;11.93;8.73;;;;;;;4.74;92.74;100004.53;1750280;81;21635;-72
2021/04/17 01:57:15;;;;;;;12.05;8.50;;;;;;;4.73;92.66;99998.88;1749796;81;21219;-71
2021/04/17 01:59:45;;;;;;;15.23;9.43;;;;;;;4.73;93.06;100008.00;1750373;81;21368;-72
2021/04/17 02:02:15;;;;;;;13.83;8.98;;;;;;;4.73;93.22;100013.22;1750420;81;22161;-73
2021/04/17 02:04:44;;;;;;;14.38;8.98;;;;;;;4.73;93.21;100011.92;1750404;81;21179;-72
2021/04/17 02:07:12;;;;;;;12.75;8.38;;;;;;;4.75;93.19;100012.76;1750245;81;21182;-72
2021/04/17 02:09:41;;;;;;;15.93;9.30;;;;;;;4.72;92.82;100023.25;1749958;81;21218;-74
2021/04/17 02:12:10;;;;;;;13.50;9.78;;;;;;;4.68;92.80;100021.56;1674378;83;21648;-73
2021/04/17 02:14:38;;;;;;;17.10;11.00;;;;;;;4.66;92.84;100019.87;1722428;82;21485;-73
2021/04/17 02:17:25;;;;;;;14.95;10.60;;;;;;;4.62;93.13;100016.42;1732755;82;21661;-74
2021/04/17 02:20:08;;;;;;;16.05;10.55;;;;;;;4.61;93.16;100018.17;1775127;80;21181;-73
2021/04/17 02:22:38;;;;;;;14.98;9.73;;;;;;;4.58;93.25;100014.77;1734187;82;21173;-72
2021/04/17 02:25:08;;;;;;;15.85;10.78;;;;;;;4.54;93.51;100020.91;1734109;82;21853;-73
2021/04/17 02:27:36;;;;;;;12.47;8.75;;;;;;;4.51;93.75;100019.21;1772959;80;21194;-74
2021/04/17 02:30:06;;;;;;;16.05;10.13;;;;;;;4.54;93.77;100026.13;1780018;80;21199;-73
2021/04/17 02:32:34;;;;;;;16.90;11.95;;;;;;;4.51;93.81;100030.05;1755947;80;21171;-73
2021/04/17 02:35:03;;;;;;;14.87;9.70;;;;;;;4.47;93.80;100024.04;1780124;80;21547;-74
2021/04/17 02:37:31;;;;;;;14.07;9.30;;;;;;;4.47;93.74;100034.92;1780109;80;21429;-73
2021/04/17 02:39:59;;;;;;;15.68;10.98;;;;;;;4.45;93.82;100033.63;1779339;80;21135;-74
2021/04/17 02:42:27;;;;;;;15.32;9.60;;;;;;;4.47;93.72;100033.61;1779551;80;21654;-75
2021/04/17 02:44:55;;;;;;;15.80;10.23;;;;;;;4.49;93.80;100044.89;1779391;80;21725;-76
2021/04/17 02:47:23;;;;;;;15.15;10.55;;;;;;;4.51;93.90;100041.79;1779441;80;21185;-75
2021/04/17 02:49:51;;;;;;;16.12;11.12;;;;;;;4.55;93.86;100043.48;1779373;80;21202;-74
2021/04/17 02:52:19;;;;;;;14.87;10.23;;;;;;;4.59;93.90;100045.17;1779179;80;21434;-75
2021/04/17 02:54:47;;;;;;;15.58;10.88;;;;;;;4.61;93.88;100049.48;1779378;80;21183;-74
2021/04/17 02:57:17;;;;;;;14.45;10.13;;;;;;;4.61;93.84;100053.39;1779351;80;21190;-75
2021/04/17 02:59:45;;;;;;;13.35;9.35;;;;;;;4.60;93.86;100052.98;1779386;80;21210;-74
2021/04/17 03:02:14;;;;;;;16.37;11.25;;;;;;;4.59;94.03;100055.16;1779383;80;21773;-74
2021/04/17 03:04:43;;;;;;;15.23;10.28;;;;;;;4.58;93.96;100061.72;1778914;79;21186;-73
2021/04/17 03:07:11;;;;;;;15.90;10.63;;;;;;;4.56;93.96;100060.87;1750004;81;21208;-74
2021/04/17 03:09:40;;;;;;;18.62;12.10;;;;;;;4.54;94.06;100063.94;1712166;82;21174;-75
2021/04/17 03:12:09;;;;;;;17.32;11.78;;;;;;;4.57;94.26;100062.59;1740966;82;21214;-74
2021/04/17 03:14:40;;;;;;;18.73;11.65;;;;;;;4.59;94.39;100071.25;1777262;80;21386;-75
2021/04/17 03:17:08;;;;;;;19.42;12.13;;;;;;;4.60;94.32;100072.97;1780820;80;21640;-74
2021/04/17 03:19:37;;;;;;;19.00;12.15;;;;;;;4.60;94.25;100071.66;1781175;80;21207;-73
2021/04/17 03:22:06;;;;;;;22.82;12.73;;;;;;;4.61;94.24;100077.31;1781050;80;21152;-72
2021/04/17 03:24:36;;;;;;;24.80;14.58;;;;;;;4.57;94.38;100074.32;1781234;80;21169;-74
2021/04/17 03:27:05;;;;;;;17.92;11.10;;;;;;;4.58;94.54;100079.98;1754802;80;22175;-72
2021/04/17 03:29:33;;;;;;;19.77;11.45;;;;;;;4.63;94.58;100082.08;1754632;81;22239;-73
2021/04/17 03:32:01;;;;;;;20.45;12.20;;;;;;;4.64;94.65;100082.48;1754810;81;21637;-72
2021/04/17 03:34:29;;;;;;;18.45;11.65;;;;;;;4.67;94.67;100082.46;1754775;81;21697;-72
2021/04/17 03:36:57;;;;;;;17.75;12.07;;;;;;;4.68;94.61;100088.09;1754717;81;21110;-73
2021/04/17 03:39:25;;;;;;;22.60;13.80;;;;;;;4.68;94.70;100088.09;1754648;81;21812;-73
2021/04/17 03:41:52;;;;;;;27.77;14.10;;;;;;;4.71;94.85;100091.94;1754796;81;21243;-74
2021/04/17 03:44:20;;;;;;;15.95;11.30;;;;;;;4.73;94.67;100091.48;1754716;81;21182;-74
2021/04/17 03:46:49;;;;;;;22.15;14.38;;;;;;;4.72;94.72;100093.69;1754854;81;21138;-74
2021/04/17 03:49:18;;;;;;;22.13;13.05;;;;;;;4.70;94.72;100098.06;1754868;81;21138;-74
2021/04/17 03:51:46;;;;;;;23.85;13.55;;;;;;;4.66;94.64;100096.38;1754939;81;21450;-74
2021/04/17 03:54:16;;;;;;;14.60;9.57;;;;;;;4.67;94.66;100102.44;1754764;81;21206;-73
2021/04/17 03:56:44;;;;;;;20.02;13.13;;;;;;;4.68;94.70;100106.34;1724057;83;21144;-73
2021/04/17 03:59:12;;;;;;;24.70;13.75;;;;;;;4.69;94.83;100109.36;1711344;83;21213;-74
2021/04/17 04:01:40;;;;;;;21.75;14.25;;;;;;;4.70;94.82;100113.72;1755064;81;21518;-74
2021/04/17 04:04:08;;;;;;;20.25;11.75;;;;;;;4.72;94.82;100109.34;1754869;81;21529;-74
2021/04/17 04:06:37;;;;;;;19.12;10.43;;;;;;;4.78;94.78;100114.45;1754620;81;21190;-75
2021/04/17 04:09:06;;;;;;;12.50;7.90;;;;;;;4.78;94.44;100117.06;1754594;81;21226;-75
2021/04/17 04:11:34;;;;;;;16.67;11.35;;;;;;;4.83;94.50;100122.22;1780446;78;21186;-75
2021/04/17 04:14:02;;;;;;;17.32;10.82;;;;;;;4.88;94.50;100120.84;1785908;80;21190;-74
2021/04/17 04:16:30;;;;;;;19.90;12.43;;;;;;;4.90;94.30;100129.52;1785771;80;21377;-75
2021/04/17 04:18:58;;;;;;;20.77;12.80;;;;;;;4.91;94.09;100131.27;1785739;80;21178;-75
2021/04/17 04:21:26;;;;;;;21.30;13.85;;;;;;;4.94;93.99;100130.77;1782541;80;21138;-75
2021/04/17 04:23:54;;;;;;;23.00;13.35;;;;;;;4.93;93.90;100134.27;1769382;80;21190;-74
2021/04/17 04:26:23;;;;;;;23.20;13.58;;;;;;;4.93;94.05;100134.72;1773232;80;21171;-74
2021/04/17 04:28:52;;;;;;;26.87;15.68;;;;;;;4.96;94.04;100138.14;1781016;80;22263;-75
2021/04/17 04:31:20;;;;;;;26.55;14.30;;;;;;;4.96;93.86;100137.28;1770376;80;21167;-76
2021/04/17 04:33:50;;;;;;;26.62;15.35;;;;;;;4.97;94.04;100141.59;1768852;80;21139;-75
2021/04/17 04:36:17;;;;;;;30.68;16.17;;;;;;;4.94;93.66;100142.52;1751806;80;21199;-75
2021/04/17 04:38:45;;;;;;;32.80;17.85;;;;;;;4.94;93.57;100140.34;1768470;79;21142;-84
2021/04/17 04:41:14;;;;;;;32.28;18.35;;;;;;;4.95;93.58;100140.79;1755147;80;21127;-85
2021/04/17 04:43:44;;;;;;;35.45;19.62;;;;;;;5.01;93.81;100150.67;1754358;79;21244;-83
2021/04/17 04:46:12;;;;;;;39.50;20.80;;;;;;;5.04;93.61;100153.71;1757343;80;21169;-84
2021/04/17 04:48:41;;;;;;;43.17;22.30;;;;;;;5.04;93.26;100155.02;1779641;80;21112;-83
2021/04/17 04:51:10;;;;;;;42.13;21.97;;;;;;;5.05;93.05;100148.89;1779423;80;21464;-84
2021/04/17 04:53:38;;;;;;;49.95;23.80;;;;;;;5.10;93.17;100152.75;1780275;80;21768;-84
2021/04/17 04:56:07;;;;;;;52.20;25.12;;;;;;;5.12;93.12;100158.36;1732568;82;21156;-84
2021/04/17 04:58:35;;;;;;;51.63;24.40;;;;;;;5.15;93.17;100158.76;1762145;80;21182;-83
2021/04/17 05:01:04;;;;;;;58.35;26.87;;;;;;;5.15;93.10;100159.61;1746621;81;21137;-83
2021/04/17 05:03:32;;;;;;;56.45;26.27;;;;;;;5.18;92.84;100160.04;1761613;80;21173;-81
2021/04/17 05:06:00;;;;;;;57.80;26.97;;;;;;;5.19;92.90;100165.22;1762988;80;21385;-83
2021/04/17 05:08:28;;;;;;;62.98;28.17;;;;;;;5.24;92.88;100165.16;1741192;81;21084;-82
2021/04/17 05:10:57;;;;;;;73.28;30.72;;;;;;;5.28;92.83;100167.29;1757213;80;21182;-82
2021/04/17 05:13:25;;;;;;;65.03;26.97;;;;;;;5.31;92.72;100168.54;1764993;80;21145;-83
2021/04/17 05:15:53;;;;;;;72.35;31.65;;;;;;;5.35;92.12;100168.92;1759829;81;21207;-84
2021/04/17 05:18:22;;;;;;;63.48;28.15;;;;;;;5.41;91.95;100171.45;1759478;81;21375;-84
2021/04/17 05:20:51;;;;;;;68.60;29.35;;;;;;;5.44;91.80;100167.47;1764599;80;21177;-85
2021/04/17 05:23:19;;;;;;;62.35;28.12;;;;;;;5.48;91.36;100165.24;1763882;80;21121;-84
2021/04/17 05:25:47;;;;;;;68.12;28.52;;;;;;;5.53;91.33;100167.78;1755577;81;21189;-85
2021/04/17 05:28:16;;;;;;;57.73;25.90;;;;;;;5.57;90.70;100169.02;1777263;80;21158;-85
2021/04/17 05:30:45;;;;;;;65.55;29.25;;;;;;;5.59;90.80;100168.55;1768421;80;21897;-85
2021/04/17 05:33:14;;;;;;;69.10;28.23;;;;;;;5.70;90.89;100171.42;1764495;80;21191;-83
2021/04/17 05:35:43;;;;;;;81.55;34.25;;;;;;;5.78;90.73;100172.17;1765730;79;21196;-85
2021/04/17 05:38:11;;;;;;;77.72;30.90;;;;;;;5.84;90.64;100172.05;1748719;80;21199;-85
2021/04/17 05:40:39;;;;;;;80.28;31.60;;;;;;;5.87;90.08;100174.62;1765788;79;21173;-85
2021/04/17 05:43:07;;;;;;;74.58;31.68;;;;;;;5.90;89.82;100181.09;1779852;79;21901;-83
2021/04/17 05:45:35;;;;;;;69.47;29.12;;;;;;;5.90;89.67;100179.79;1778671;79;21143;-85
2021/04/17 05:48:03;;;;;;;72.97;30.05;;;;;;;5.88;89.57;100186.80;1776013;80;21171;-83
2021/04/17 05:50:31;;;;;;;74.45;30.23;;;;;;;5.84;89.66;100183.39;1773784;80;21167;-85
2021/04/17 05:52:59;;;;;;;78.35;31.05;;;;;;;5.88;89.67;100188.95;1780820;79;21216;-84
2021/04/17 05:55:27;;;;;;;79.82;31.02;;;;;;;5.93;89.64;100191.48;1780915;79;21804;-83
2021/04/17 05:57:55;;;;;;;77.10;32.85;;;;;;;6.01;89.79;100194.88;1790009;79;22259;-84
2021/04/17 06:00:23;;;;;;;69.80;27.80;;;;;;;6.09;89.31;100202.13;1768940;80;21166;-86
2021/04/17 06:02:53;;;;;;;69.03;27.07;;;;;;;6.15;88.92;100193.78;1767604;80;21169;-85
2021/04/17 06:05:22;;;;;;;60.00;25.97;;;;;;;6.22;89.01;100196.70;1766946;80;21201;-85
2021/04/17 06:07:51;;;;;;;64.10;27.17;;;;;;;6.26;88.44;100203.16;1765153;80;22369;-84
2021/04/17 06:10:19;;;;;;;62.25;27.50;;;;;;;6.32;88.21;100198.24;1771923;80;21139;-86
2021/04/17 06:12:47;;;;;;;57.50;25.35;;;;;;;6.37;87.65;100202.94;1778335;80;21135;-84
2021/04/17 06:15:18;;;;;;;;;;;;;;;6.41;87.50;100198.08;1781148;80;21179;-84
2021/04/17 06:17:46;;;;;;;57.67;25.27;;;;;;;6.47;87.32;100204.51;1774507;80;21049;-83
2021/04/17 06:20:14;;;;;;;58.13;23.45;;;;;;;6.60;87.40;100209.50;1775526;79;21148;-84
2021/04/17 06:22:44;;;;;;;52.60;23.45;;;;;;;6.70;87.42;100214.98;1774774;79;21183;-84
2021/04/17 06:25:12;;;;;;;48.15;21.77;;;;;;;6.72;86.36;100210.13;1736607;82;21175;-84
2021/04/17 06:27:40;;;;;;;49.25;21.77;;;;;;;6.73;86.35;100214.91;1713765;81;21216;-85
2021/04/17 06:30:16;;;;;;;42.95;18.87;;;;;;;6.74;85.70;100211.42;1777260;80;21198;-85
2021/04/17 06:32:46;;;;;;;45.70;21.57;;;;;;;6.67;85.23;100218.95;1779143;80;21336;-84
2021/04/17 06:35:17;;;;;;;50.90;23.35;;;;;;;6.59;85.09;100220.87;1777044;80;21225;-84
2021/04/17 06:37:44;;;;;;;63.00;27.35;;;;;;;6.54;85.33;100224.02;1785258;80;21594;-85
2021/04/17 06:40:14;;;;;;;40.35;18.95;;;;;;;6.53;85.75;100219.67;1780183;80;21601;-85
2021/04/17 06:42:44;;;;;;;43.10;21.93;;;;;;;6.50;84.95;100226.67;1771988;80;21243;-86
2021/04/17 06:45:13;;;;;;;52.13;21.97;;;;;;;6.42;85.18;100232.52;1787062;80;21395;-76
2021/04/17 06:47:41;;;;;;;51.02;22.70;;;;;;;6.41;85.82;100234.70;1776640;80;21226;-74
2021/04/17 06:50:11;;;;;;;46.65;21.68;;;;;;;6.43;85.88;100238.16;1776961;80;21171;-76
2021/04/17 06:52:40;;;;;;;53.85;21.60;;;;;;;6.46;85.68;100240.70;1755912;80;21162;-76
2021/04/17 06:55:09;;;;;;;48.65;22.05;;;;;;;6.46;85.50;100238.08;1773202;78;21138;-80
2021/04/17 06:57:37;;;;;;;44.00;20.32;;;;;;;6.48;85.56;100240.69;1778918;78;21365;-80
2021/04/17 07:00:10;;;;;;;53.90;23.10;;;;;;;6.49;85.36;100251.13;1748017;78;21646;-81
2021/04/17 07:02:38;;;;;;;54.23;23.80;;;;;;;6.48;85.45;100253.31;1785091;80;21144;-81
2021/04/17 07:05:08;;;;;;;56.40;25.32;;;;;;;6.48;85.28;100259.00;1778452;80;21167;-80
2021/04/17 07:07:36;;;;;;;51.10;23.55;;;;;;;6.46;85.40;100255.55;1783673;78;22452;-81
2021/04/17 07:11:24;;;;;;;58.35;25.12;;;;;;;6.49;86.15;100256.36;1803785;77;28700;-81
2021/04/17 07:14:10;;;;;;;58.17;24.57;;;;;;;6.49;86.27;100261.59;1776307;80;21132;-80
2021/04/17 07:17:00;;;;;;;51.00;23.50;;;;;;;6.54;86.22;100264.58;1753491;81;21428;-81
2021/04/17 07:20:04;;;;;;;48.98;22.73;;;;;;;6.59;85.81;100266.66;1754335;80;21224;-80
2021/04/17 07:22:37;;;;;;;54.65;23.40;;;;;;;6.62;85.33;100266.59;1757379;80;21195;-80
2021/04/17 07:25:12;;;;;;;53.08;24.18;;;;;;;6.65;85.35;100261.33;1754460;80;21261;-80
2021/04/17 07:27:49;;;;;;;49.35;23.20;;;;;;;6.69;85.11;100272.13;1762394;80;21190;-79
2021/04/17 07:30:23;;;;;;;46.83;21.15;;;;;;;6.68;85.04;100268.66;1697813;83;21369;-79
2021/04/17 07:33:09;;;;;;;47.62;21.80;;;;;;;6.72;85.05;100268.16;1700375;83;21120;-81
2021/04/17 07:35:44;;;;;;;53.33;22.80;;;;;;;6.74;84.51;100276.86;1696748;83;21210;-81
2021/04/17 07:38:18;;;;;;;44.55;20.52;;;;;;;6.73;84.61;100275.11;1705820;82;21238;-79
2021/04/17 07:41:15;;;;;;;39.90;19.65;;;;;;;6.73;84.54;100281.66;1692933;84;21165;-81
2021/04/17 07:43:59;;;;;;;34.27;17.52;;;;;;;6.71;84.71;100282.98;1705492;83;22161;-80
2021/04/17 07:46:42;;;;;;;42.38;19.42;;;;;;;6.70;84.60;100285.64;1716649;82;21406;-79
2021/04/17 07:49:15;;;;;;;40.45;19.70;;;;;;;6.69;84.70;100282.59;1697735;84;21202;-81
2021/04/17 07:52:04;;;;;;;41.77;19.75;;;;;;;6.68;84.74;100283.50;1700985;83;21178;-80
2021/04/17 07:54:33;;;;;;;35.92;18.20;;;;;;;6.67;85.14;100285.69;1692309;84;21171;-81
2021/04/17 07:57:10;;;;;;;32.20;17.30;;;;;;;6.69;85.50;100293.06;1715076;82;21237;-81
2021/04/17 07:59:41;;;;;;;31.60;17.45;;;;;;;6.70;85.55;100285.64;1695979;83;21204;-80
2021/04/17 08:02:11;;;;;;;28.23;15.10;;;;;;;6.68;85.50;100284.81;1716791;83;22177;-80
2021/04/17 08:04:39;;;;;;;33.10;15.78;;;;;;;6.68;85.69;100287.42;1711150;83;22175;-79
2021/04/17 08:07:07;;;;;;;45.90;21.95;;;;;;;6.70;85.55;100286.50;1704898;83;21166;-80
2021/04/17 08:09:35;;;;;;;28.15;14.53;;;;;;;6.76;85.72;100284.20;1702149;82;21409;-80
2021/04/17 08:12:04;;;;;;;30.72;15.65;;;;;;;6.80;85.07;100288.49;1643173;85;21207;-80
2021/04/17 08:14:33;;;;;;;32.20;16.80;;;;;;;6.85;85.20;100286.64;1671213;85;21188;-80
2021/04/17 08:17:01;;;;;;;31.35;16.70;;;;;;;6.88;84.83;100287.06;1702296;82;21582;-80
2021/04/17 08:19:31;;;;;;;31.00;16.35;;;;;;;6.92;84.84;100286.97;1737559;82;21201;-81
2021/04/17 08:21:59;;;;;;;32.73;16.73;;;;;;;7.00;84.79;100281.57;1721570;82;21906;-79
2021/04/17 08:24:30;;;;;;;35.03;16.45;;;;;;;7.10;84.29;100283.55;1725550;82;21539;-81
2021/04/17 08:27:00;;;;;;;35.00;18.52;;;;;;;7.19;83.67;100284.67;1723371;82;21152;-82
2021/04/17 08:29:51;;;;;;;36.00;18.25;;;;;;;7.25;83.36;100283.70;1664551;85;21247;-80
2021/04/17 08:32:28;;;;;;;41.23;19.35;;;;;;;7.28;82.94;100284.48;1722928;82;21132;-79
2021/04/17 08:35:17;;;;;;;36.28;16.95;;;;;;;7.33;82.95;100290.48;1725997;82;22293;-79
2021/04/17 08:45:13;;;;;;;35.52;17.05;;;;;;;7.50;81.46;100282.70;1700754;77;21646;-86
2021/04/17 08:47:55;;;;;;;35.40;15.90;;;;;;;7.52;81.57;100286.15;1690607;82;21998;-88
2021/04/17 08:50:31;;;;;;;33.00;18.60;;;;;;;7.59;81.66;100287.73;1702734;83;21209;-88
2021/04/17 08:53:16;;;;;;;31.73;15.70;;;;;;;7.62;81.00;100285.06;1704157;81;21242;-86
2021/04/17 08:55:49;;;;;;;32.42;17.07;;;;;;;7.61;80.66;100291.19;1708019;81;21267;-86
2021/04/17 08:58:25;;;;;;;37.83;18.75;;;;;;;7.56;80.21;100291.75;1724250;80;21330;-90
2021/04/17 09:04:08;;;;;;;29.12;15.28;;;;;;;7.52;80.82;100286.15;1820041;76;28234;-79
2021/04/17 09:06:53;;;;;;;24.27;12.95;;;;;;;7.51;80.98;100293.61;1714323;82;21154;-80
2021/04/17 09:09:25;;;;;;;20.80;11.93;;;;;;;7.54;80.70;100290.91;1735330;80;21501;-80
2021/04/17 09:12:12;;;;;;;31.23;15.68;;;;;;;7.51;80.41;100290.99;1742766;81;21067;-80
2021/04/17 09:14:55;;;;;;;28.92;15.80;;;;;;;7.47;80.26;100289.33;1794098;77;21162;-81
2021/04/17 09:17:37;;;;;;;31.87;17.32;;;;;;;7.40;80.21;100286.43;1795376;79;21123;-80
2021/04/17 09:20:13;;;;;;;39.90;22.37;;;;;;;7.39;80.49;100286.03;1796621;79;21163;-80
2021/04/17 09:22:44;;;;;;;32.38;19.02;;;;;;;7.40;80.46;100287.73;1792150;79;21453;-80
2021/04/17 09:25:17;;;;;;;31.13;16.57;;;;;;;7.38;80.50;100289.52;1790725;79;21236;-79
2021/04/17 09:27:51;;;;;;;48.17;25.12;;;;;;;7.33;80.62;100290.48;1787724;79;21202;-79
2021/04/17 09:30:21;;;;;;;23.80;13.58;;;;;;;7.35;80.72;100290.45;1797322;79;21704;-80
2021/04/17 09:32:54;;;;;;;24.77;14.90;;;;;;;7.38;80.45;100296.93;1783947;79;21178;-79
2021/04/17 09:35:39;;;;;;;22.07;12.98;;;;;;;7.44;80.46;100292.02;1815607;76;28289;-79
2021/04/17 09:38:15;;;;;;;18.73;10.95;;;;;;;7.42;80.60;100293.81;1797593;79;21521;-79
2021/04/17 09:40:54;;;;;;;19.10;11.78;;;;;;;7.40;80.41;100289.91;1797058;79;21272;-79
2021/04/17 09:43:33;;;;;;;26.27;13.60;;;;;;;7.44;80.58;100291.57;1779074;79;21613;-79
2021/04/17 09:46:07;;;;;;;22.15;12.28;;;;;;;7.49;80.61;100292.33;1770394;79;21214;-79
2021/04/17 09:48:40;;;;;;;20.10;12.55;;;;;;;7.50;80.59;100297.11;1763926;79;21224;-79
2021/04/17 09:51:26;;;;;;;21.68;10.68;;;;;;;7.52;80.00;100294.02;1764559;80;22095;-78
2021/04/17 09:54:02;;;;;;;27.32;12.85;;;;;;;7.52;80.62;100299.25;1768556;79;22282;-77
2021/04/17 09:56:32;;;;;;;38.40;19.87;;;;;;;7.51;80.77;100300.16;1773084;80;21189;-78
2021/04/17 09:59:09;;;;;;;30.12;14.53;;;;;;;7.52;80.33;100308.42;1751844;81;21226;-77
2021/04/17 10:01:37;;;;;;;29.18;15.08;;;;;;;7.51;80.63;100308.03;1752049;81;21202;-78
2021/04/17 10:04:05;;;;;;;54.05;25.97;;;;;;;7.49;80.47;100303.27;1763945;79;21198;-79
2021/04/17 10:06:37;;;;;;;20.57;11.20;;;;;;;7.50;81.03;100311.52;1751908;81;21363;-79
2021/04/17 10:09:15;;;;;;;21.97;11.00;;;;;;;7.48;81.17;100312.03;1757472;81;21218;-77
2021/04/17 10:11:43;;;;;;;17.70;9.85;;;;;;;7.49;81.29;100312.44;1775379;80;21150;-78
2021/04/17 10:14:18;;;;;;;26.68;12.20;;;;;;;7.58;81.86;100316.16;1765403;80;21170;-79
2021/04/17 10:16:48;;;;;;;20.37;10.38;;;;;;;7.67;82.00;100313.34;1750579;81;21193;-78
2021/04/17 10:19:18;;;;;;;18.70;9.73;;;;;;;7.74;81.02;100321.94;1779309;80;21365;-78
2021/04/17 10:21:59;;;;;;;19.02;10.30;;;;;;;7.72;80.52;100322.41;1774177;80;21659;-77
2021/04/17 10:24:32;;;;;;;22.45;10.55;;;;;;;7.58;81.58;100329.27;1748995;80;21213;-77
2021/04/17 10:27:13;;;;;;;19.48;10.55;;;;;;;7.58;81.58;100329.27;1770965;80;21182;-77
2021/04/17 10:29:52;;;;;;;17.90;10.50;;;;;;;7.58;81.63;100330.58;1752025;81;21169;-77
2021/04/17 10:32:25;;;;;;;16.95;9.75;;;;;;;7.64;81.69;100331.77;1730859;82;21366;-77
2021/04/17 10:35:07;;;;;;;21.80;10.70;;;;;;;7.68;81.79;100334.72;1730545;81;21222;-77
2021/04/17 10:37:47;;;;;;;25.88;10.75;;;;;;;7.71;82.08;100325.50;1755068;81;21161;-78
2021/04/17 10:40:19;;;;;;;17.62;10.00;;;;;;;7.71;82.13;100339.91;1776629;80;21150;-78
2021/04/17 10:42:52;;;;;;;21.37;10.97;;;;;;;7.74;82.26;100341.60;1771716;80;21153;-78
2021/04/17 10:45:35;;;;;;;20.27;10.70;;;;;;;7.72;82.31;100335.07;1762583;80;21194;-78
2021/04/17 10:48:14;;;;;;;17.25;9.88;;;;;;;7.75;82.00;100336.75;1768514;80;21160;-78
2021/04/17 10:50:54;;;;;;;16.77;10.40;;;;;;;7.77;81.83;100346.31;1777617;80;21640;-81
2021/04/17 10:53:32;;;;;;;17.90;9.80;;;;;;;7.76;81.45;100343.28;1776014;80;21122;-77
2021/04/17 10:56:18;;;;;;;19.48;10.40;;;;;;;7.74;82.36;100343.77;1767310;80;21107;-76
2021/04/17 10:58:49;;;;;;;19.85;10.23;;;;;;;7.77;82.38;100350.23;1769396;80;21202;-76
2021/04/17 11:01:25;;;;;;;19.35;10.40;;;;;;;7.81;81.85;100346.27;1765447;80;22291;-77
2021/04/17 11:06:45;;;;;;;14.60;9.83;;;;;;;7.73;82.40;100347.30;1802974;76;27858;-76
2021/04/17 11:09:11;;;;;;;15.63;8.93;;;;;;;7.75;82.55;100358.62;1780320;79;21173;-77
2021/04/17 11:11:54;;;;;;;16.55;9.65;;;;;;;7.71;83.33;100362.19;1777740;79;21189;-77
2021/04/17 11:14:24;;;;;;;22.63;12.80;;;;;;;7.62;84.26;100362.39;1762124;80;21169;-77
2021/04/17 11:16:53;;;;;;;20.80;9.98;;;;;;;7.60;85.21;100366.80;1755911;80;21142;-77
2021/04/17 11:19:26;;;;;;;17.67;9.30;;;;;;;7.56;85.02;100367.75;1760116;80;21123;-77
2021/04/17 11:22:14;;;;;;;26.90;12.68;;;;;;;7.53;85.80;100374.38;1774074;80;21177;-76
2021/04/17 11:27:44;;;;;;;25.20;11.80;;;;;;;7.48;86.48;100375.78;1875609;74;28282;-77
2021/04/17 11:30:14;;;;;;;20.10;12.40;;;;;;;7.37;87.24;100377.75;1842870;76;21593;-77
2021/04/17 11:32:42;;;;;;;29.02;15.55;;;;;;;7.32;87.65;100376.53;1840274;75;21367;-77
2021/04/17 11:35:13;;;;;;;23.83;10.75;;;;;;;7.29;87.82;100377.02;1837568;76;21182;-76
2021/04/17 11:37:41;;;;;;;16.85;10.93;;;;;;;7.31;88.48;100370.86;1840619;76;21150;-77
2021/04/17 11:40:12;;;;;;;19.10;10.25;;;;;;;7.34;88.55;100373.44;1864917;76;21190;-77
2021/04/17 11:42:40;;;;;;;24.25;11.48;;;;;;;7.41;89.45;100371.98;1833727;77;21634;-78
2021/04/17 11:45:10;;;;;;;25.35;13.40;;;;;;;7.47;89.44;100375.34;1769760;80;22679;-77
2021/04/17 11:47:40;;;;;;;32.42;16.17;;;;;;;7.49;89.22;100370.09;1764964;80;21671;-76
2021/04/17 11:50:11;;;;;;;35.38;19.25;;;;;;;7.54;89.49;100374.78;1758264;80;21171;-77
2021/04/17 11:52:39;;;;;;;29.00;13.55;;;;;;;7.58;88.99;100367.27;1762262;80;21189;-79
2021/04/17 11:55:09;;;;;;;21.77;11.97;;;;;;;7.60;88.11;100374.66;1777145;80;21190;-78
2021/04/17 11:57:37;;;;;;;37.60;17.70;;;;;;;7.51;87.29;100369.61;1775457;79;21486;-79
2021/04/17 12:00:06;;;;;;;57.45;22.75;;;;;;;7.48;87.86;100373.61;1764570;79;21119;-78
2021/04/17 12:02:34;;;;;;;36.38;16.07;;;;;;;7.45;87.77;100372.34;1767667;79;21684;-78
2021/04/17 12:05:03;;;;;;;35.45;16.12;;;;;;;7.42;88.38;100365.87;1770870;79;21190;-77
2021/04/17 12:07:31;;;;;;;36.58;16.77;;;;;;;7.41;88.58;100375.91;1774736;79;21369;-79
2021/04/17 12:09:59;;;;;;;57.10;23.90;;;;;;;7.43;88.77;100376.75;1762972;79;21203;-78
2021/04/17 12:12:28;;;;;;;51.53;21.90;;;;;;;7.43;88.98;100379.37;1763861;79;21170;-78
2021/04/17 12:14:57;;;;;;;21.12;10.78;;;;;;;7.42;88.95;100376.34;1763034;79;21191;-79
2021/04/17 12:17:25;;;;;;;40.98;20.05;;;;;;;7.43;88.97;100374.12;1769972;79;21487;-78
2021/04/17 12:19:53;;;;;;;40.73;19.37;;;;;;;7.42;88.90;100375.04;1780282;79;21189;-76